Radiosonde details



Informationen :

Serial : D26001952
Type : Graw DFM
Frequency : 403.210MHz
Launchsite : Spokane, Wa.
Nearest town : Chewelah, US (27km)

Altitude (Max) : 33580m at 2026-09-05 19:00:25
Speed (Max) : 169km/h at altitude 9113m

Average speed : 52km/h
Average ascent rate : 5m/s
Average descent rate : -20m/s
Ascent rate (Max) : 11.8m/s
Descent rate (Max): -38.5m/s

First frame :
WB7NNF at 2026-09-05 17:29:25 at altitude 5713m (OG: 4947m)
Last frame :
WB7NNF at 2026-09-05 19:21:23 at altitude 9113m (OG: 7930m)

Flighttime : 1h51m58s
Ascent time : 1h31m0s
Descent time : 20m58s
Uptime : -
Killtimer : -

Distance (Straight line distance): 79km

Distance (Route):


Frames : 316


Measurement :

Temperature : 0°C
Humidity : 0%
Pressure : 0hPa


Vertical profile (SkewT) :


Elevation profile :



Receiving stations :


Receiver Frames First received Last received
WB7NNF 316 2026-09-05 17:29:25 2026-09-05 19:21:23

Share per receiver :



All frames :


Receiver Date Latitude Longitude Direction Speed Altitude Climb Temperature Humidity Pressure Voltage Killtimer Uptime BKT XDATA
WB7NNF2026-09-05 19:21:2348.42641-117.4285624°166km/h9113m-11.2m/s0°C0%0hPa0V00:00:0000:00:0000:00:00
WB7NNF2026-09-05 19:20:2948.40814-117.4393116°128km/h9779m-13.4m/s-45.0°C0%0hPa0V00:00:0000:00:0000:00:00
WB7NNF2026-09-05 19:19:5748.39875-117.4436519°113km/h10249m-15.8m/s-42.8°C0%0hPa0V00:00:0000:00:0000:00:00
WB7NNF2026-09-05 19:19:3748.39305-117.4460415°102km/h10500m-11.8m/s-43.2°C0%0hPa0V00:00:0000:00:0000:00:00
WB7NNF2026-09-05 19:19:1648.38761-117.4476213°108km/h10766m-13.2m/s-42.5°C0%0hPa0V00:00:0000:00:0000:00:00
WB7NNF2026-09-05 19:18:5448.38209-117.4506927°95km/h11053m-13.9m/s-42.3°C0%0hPa0V00:00:0000:00:0000:00:00
WB7NNF2026-09-05 19:18:3348.37822-117.4532217°77km/h11321m-15.3m/s-42.1°C0%0hPa0V00:00:0000:00:0000:00:00
WB7NNF2026-09-05 19:18:1348.37446-117.4544411°77km/h11617m-11.7m/s-42.7°C0%0hPa0V00:00:0000:00:0000:00:00
WB7NNF2026-09-05 19:17:5248.37056-117.4557211°73km/h11889m-14.5m/s-42.9°C0%0hPa0V00:00:0000:00:0000:00:00
WB7NNF2026-09-05 19:17:3248.36705-117.4565115°64km/h12199m-15.8m/s-42.6°C0%0hPa0V00:00:0000:00:0000:00:00
WB7NNF2026-09-05 19:17:1148.36372-117.4581221°69km/h12543m-15.8m/s-43.8°C0%0hPa0V00:00:0000:00:0000:00:00
WB7NNF2026-09-05 19:16:5048.36016-117.4594711°68km/h12851m-14.8m/s-44.6°C0%0hPa0V00:00:0000:00:0000:00:00
WB7NNF2026-09-05 19:16:3048.35664-117.4606214°78km/h13178m-16.6m/s-46.1°C0%0hPa0V00:00:0000:00:0000:00:00
WB7NNF2026-09-05 19:16:0948.35235-117.4623717°89km/h13484m-14.4m/s-47.3°C0%0hPa0V00:00:0000:00:0000:00:00
WB7NNF2026-09-05 19:15:4948.34843-117.4641015°64km/h13775m-13.4m/s-48.6°C0%0hPa0V00:00:0000:00:0000:00:00
WB7NNF2026-09-05 19:15:2848.34563-117.46441355°51km/h14051m-13.0m/s-47.6°C0%0hPa0V00:00:0000:00:0000:00:00
WB7NNF2026-09-05 19:15:0848.34326-117.46314336°57km/h14367m-18.4m/s-48.3°C0%0hPa0V00:00:0000:00:0000:00:00
WB7NNF2026-09-05 19:14:4748.33992-117.46139350°82km/h14736m-18.4m/s-49.5°C0%0hPa0V00:00:0000:00:0000:00:00
WB7NNF2026-09-05 19:14:2748.33536-117.4608984km/h15082m-14.9m/s-50.5°C0%0hPa0V00:00:0000:00:0000:00:00
WB7NNF2026-09-05 19:14:0648.33141-117.4625528°69km/h15401m-16.5m/s-51.0°C0%0hPa0V00:00:0000:00:0000:00:00
WB7NNF2026-09-05 19:13:4648.32884-117.4645915°49km/h15728m-14.3m/s-51.3°C0%0hPa0V00:00:0000:00:0000:00:00
WB7NNF2026-09-05 19:13:2548.32643-117.4661431°38km/h16022m-16.4m/s-50.4°C0%0hPa0V00:00:0000:00:0000:00:00
WB7NNF2026-09-05 19:13:0548.32418-117.4672416°46km/h16365m-17.1m/s-49.7°C0%0hPa0V00:00:0000:00:0000:00:00
WB7NNF2026-09-05 19:12:4448.32240-117.4684921°38km/h16676m-18.3m/s-49.9°C0%0hPa0V00:00:0000:00:0000:00:00
WB7NNF2026-09-05 19:12:2448.32112-117.46882354°20km/h17107m-15.0m/s-52.7°C0%0hPa0V00:00:0000:00:0000:00:00
WB7NNF2026-09-05 19:12:0348.31962-117.4688612°33km/h17467m-18.4m/s-51.4°C0%0hPa0V00:00:0000:00:0000:00:00
WB7NNF2026-09-05 19:11:4248.31834-117.46924345°16km/h17807m-16.1m/s-51.6°C0%0hPa0V00:00:0000:00:0000:00:00
WB7NNF2026-09-05 19:11:2248.31733-117.46798328°33km/h18147m-13.1m/s-53.1°C0%0hPa0V00:00:0000:00:0000:00:00
WB7NNF2026-09-05 19:11:0148.31556-117.46669339°42km/h18445m-15.3m/s-55.1°C0%0hPa0V00:00:0000:00:0000:00:00
WB7NNF2026-09-05 19:10:4148.31340-117.4662027km/h18764m-16.1m/s-53.0°C0%0hPa0V00:00:0000:00:0000:00:00
WB7NNF2026-09-05 19:10:2048.31214-117.46594349°27km/h19119m-17.9m/s-53.1°C0%0hPa0V00:00:0000:00:0000:00:00
WB7NNF2026-09-05 19:10:0048.31097-117.46558354°15km/h19478m-17.2m/s-52.7°C0%0hPa0V00:00:0000:00:0000:00:00
WB7NNF2026-09-05 19:09:3948.31041-117.46516296°13km/h19853m-19.3m/s-52.9°C0%0hPa0V00:00:0000:00:0000:00:00
WB7NNF2026-09-05 19:09:1948.31017-117.46375292°26km/h20257m-17.4m/s-54.2°C0%0hPa0V00:00:0000:00:0000:00:00
WB7NNF2026-09-05 19:08:5848.30951-117.46308328°20km/h20635m-18.1m/s-54.9°C0%0hPa0V00:00:0000:00:0000:00:00
WB7NNF2026-09-05 19:08:3848.30816-117.4623229km/h21032m-18.0m/s-53.9°C0%0hPa0V00:00:0000:00:0000:00:00
WB7NNF2026-09-05 19:08:1748.30808-117.46317165°18km/h21417m-18.4m/s-53.8°C0%0hPa0V00:00:0000:00:0000:00:00
WB7NNF2026-09-05 19:07:5748.30866-117.46195269°33km/h21820m-21.9m/s-53.4°C0%0hPa0V00:00:0000:00:0000:00:00
WB7NNF2026-09-05 19:07:3648.30754-117.45974337°38km/h22323m-21.1m/s-54.1°C0%0hPa0V00:00:0000:00:0000:00:00
WB7NNF2026-09-05 19:07:1548.30677-117.45956163°5km/h22709m-20.8m/s-53.6°C0%0hPa0V00:00:0000:00:0000:00:00
WB7NNF2026-09-05 19:06:5548.30649-117.45963121°4km/h23168m-19.8m/s-53.0°C0%0hPa0V00:00:0000:00:0000:00:00
WB7NNF2026-09-05 19:06:3448.30655-117.45898289°20km/h23614m-21.5m/s-53.8°C0%0hPa0V00:00:0000:00:0000:00:00
WB7NNF2026-09-05 19:06:1448.30610-117.45819283°15km/h24188m-27.6m/s-51.4°C0%0hPa0V00:00:0000:00:0000:00:00
WB7NNF2026-09-05 19:05:5348.30629-117.45742273°16km/h24703m-29.7m/s-52.2°C0%0hPa0V00:00:0000:00:0000:00:00
WB7NNF2026-09-05 19:05:3348.30612-117.45634292°16km/h25251m-24.8m/s-52.7°C0%0hPa0V00:00:0000:00:0000:00:00
WB7NNF2026-09-05 19:05:1248.30539-117.45538345°20km/h25706m-22.0m/s-51.4°C0%0hPa0V00:00:0000:00:0000:00:00
WB7NNF2026-09-05 19:04:5248.30464-117.45563177°7km/h26207m-25.0m/s-49.0°C0%0hPa0V00:00:0000:00:0000:00:00
WB7NNF2026-09-05 19:04:3148.30499-117.45526297°11km/h26700m-20.8m/s-50.5°C0%0hPa0V00:00:0000:00:0000:00:00
WB7NNF2026-09-05 19:04:1148.30459-117.4548550°9km/h27196m-23.2m/s-50.2°C0%0hPa0V00:00:0000:00:0000:00:00
WB7NNF2026-09-05 19:03:5048.30487-117.45487236°13km/h27716m-25.2m/s-49.0°C0%0hPa0V00:00:0000:00:0000:00:00
WB7NNF2026-09-05 19:03:3048.30550-117.45379184°27km/h28293m-27.4m/s-48.6°C0%0hPa0V00:00:0000:00:0000:00:00
WB7NNF2026-09-05 19:03:0948.30603-117.45294259°18km/h28854m-26.8m/s-47.9°C0%0hPa0V00:00:0000:00:0000:00:00
WB7NNF2026-09-05 19:02:4948.30583-117.45185282°11km/h29450m-25.4m/s-47.2°C0%0hPa0V00:00:0000:00:0000:00:00
WB7NNF2026-09-05 19:02:2848.30520-117.45049336°18km/h30034m-30.4m/s-45.6°C0%0hPa0V00:00:0000:00:0000:00:00
WB7NNF2026-09-05 19:02:0848.30432-117.45029354°15km/h30742m-31.7m/s-42.6°C0%0hPa0V00:00:0000:00:0000:00:00
WB7NNF2026-09-05 19:01:4748.30391-117.4507367°9km/h31454m-38.5m/s-41.8°C0%0hPa0V00:00:0000:00:0000:00:00
WB7NNF2026-09-05 19:01:2648.30380-117.45206123°20km/h32113m-27.2m/s-41.8°C0%0hPa0V00:00:0000:00:0000:00:00
WB7NNF2026-09-05 19:01:0648.30419-117.45260164°27km/h32749m-35.5m/s-41.0°C0%0hPa0V00:00:0000:00:0000:00:00
WB7NNF2026-09-05 19:00:4548.30450-117.45275202°20km/h33408m-35.9m/s-38.5°C0%0hPa0V00:00:0000:00:0000:00:00
WB7NNF2026-09-05 19:00:2548.30424-117.4526026°55km/h33580m2.1m/s-37.9°C0%0hPa0V00:00:0000:00:0000:00:00
WB7NNF2026-09-05 19:00:0448.30421-117.45306196°49km/h33455m8.8m/s-39.6°C0%0hPa0V00:00:0000:00:0000:00:00
WB7NNF2026-09-05 18:59:4448.30431-117.4529836°40km/h33323m11.8m/s-40.0°C0%0hPa0V00:00:0000:00:0000:00:00
WB7NNF2026-09-05 18:59:2348.30411-117.45332167°38km/h33199m3.0m/s-40.4°C0%0hPa0V00:00:0000:00:0000:00:00
WB7NNF2026-09-05 18:59:0348.30377-117.4529223°35km/h33063m3.3m/s-41.1°C0%0hPa0V00:00:0000:00:0000:00:00
WB7NNF2026-09-05 18:58:4048.30430-117.45402159°35km/h32926m5.7m/s-41.2°C0%0hPa0V00:00:0000:00:0000:00:00
WB7NNF2026-09-05 18:58:2048.30545-117.45434246°55km/h32793m6.7m/s-41.2°C0%0hPa0V00:00:0000:00:0000:00:00
WB7NNF2026-09-05 18:57:5948.30651-117.4545499°66km/h32674m11.1m/s-41.2°C0%0hPa0V00:00:0000:00:0000:00:00
WB7NNF2026-09-05 18:57:3948.30716-117.45495261°27km/h32551m8.7m/s-41.2°C0%0hPa0V00:00:0000:00:0000:00:00
WB7NNF2026-09-05 18:57:1748.30697-117.45559131°42km/h32420m9.2m/s-41.3°C0%0hPa0V00:00:0000:00:0000:00:00
WB7NNF2026-09-05 18:56:5648.30682-117.45576333°24km/h32296m1.3m/s-41.9°C0%0hPa0V00:00:0000:00:0000:00:00
WB7NNF2026-09-05 18:56:3548.30700-117.45728155°35km/h32159m7.2m/s-42.0°C0%0hPa0V00:00:0000:00:0000:00:00
WB7NNF2026-09-05 18:56:1348.30743-117.4585623°42km/h32031m1.8m/s-42.5°C0%0hPa0V00:00:0000:00:0000:00:00
WB7NNF2026-09-05 18:55:5048.30677-117.4607286°53km/h31869m9.5m/s-42.0°C0%0hPa0V00:00:0000:00:0000:00:00
WB7NNF2026-09-05 18:55:3048.30623-117.46190192°27km/h31748m9.3m/s-41.6°C0%0hPa0V00:00:0000:00:0000:00:00
WB7NNF2026-09-05 18:55:0948.30561-117.4625426°55km/h31614m6.8m/s-41.8°C0%0hPa0V00:00:0000:00:0000:00:00
WB7NNF2026-09-05 18:54:4948.30507-117.46329105°15km/h31482m8.7m/s-41.8°C0%0hPa0V00:00:0000:00:0000:00:00
WB7NNF2026-09-05 18:54:2848.30484-117.46335330°16km/h31359m3.7m/s-41.6°C0%0hPa0V00:00:0000:00:0000:00:00
WB7NNF2026-09-05 18:54:0848.30443-117.4639986°16km/h31221m6.8m/s-41.8°C0%0hPa0V00:00:0000:00:0000:00:00
WB7NNF2026-09-05 18:53:4748.30399-117.46384319°15km/h31097m3.7m/s-42.0°C0%0hPa0V00:00:0000:00:0000:00:00
WB7NNF2026-09-05 18:53:2748.30323-117.4646554°35km/h30971m2.4m/s-41.9°C0%0hPa0V00:00:0000:00:0000:00:00
WB7NNF2026-09-05 18:53:0648.30271-117.4648394°5km/h30846m4.7m/s-41.8°C0%0hPa0V00:00:0000:00:0000:00:00
WB7NNF2026-09-05 18:52:4448.30189-117.46558329°18km/h30715m7.9m/s-42.1°C0%0hPa0V00:00:0000:00:0000:00:00
WB7NNF2026-09-05 18:52:2348.30102-117.4658232°42km/h30594m8.7m/s-42.3°C0%0hPa0V00:00:0000:00:0000:00:00
WB7NNF2026-09-05 18:52:0148.29970-117.46564283°35km/h30471m2.8m/s-42.9°C0%0hPa0V00:00:0000:00:0000:00:00
WB7NNF2026-09-05 18:51:4048.29883-117.4657343°26km/h30351m0.0m/s-44.2°C0%0hPa0V00:00:0000:00:0000:00:00
WB7NNF2026-09-05 18:51:1848.29846-117.46525327°18km/h30229m4.4m/s-45.1°C0%0hPa0V00:00:0000:00:0000:00:00
WB7NNF2026-09-05 18:50:5748.29756-117.46506343°27km/h30100m7.2m/s-45.9°C0%0hPa0V00:00:0000:00:0000:00:00
WB7NNF2026-09-05 18:50:3748.29641-117.46380342°26km/h29970m6.3m/s-46.2°C0%0hPa0V00:00:0000:00:0000:00:00
WB7NNF2026-09-05 18:50:1648.29558-117.46258300°33km/h29853m8.8m/s-46.6°C0%0hPa0V00:00:0000:00:0000:00:00
WB7NNF2026-09-05 18:49:5648.29521-117.46016320°15km/h29722m8.5m/s-46.9°C0%0hPa0V00:00:0000:00:0000:00:00
WB7NNF2026-09-05 18:49:3548.29529-117.45878251°47km/h29599m7.0m/s-46.7°C0%0hPa0V00:00:0000:00:0000:00:00
WB7NNF2026-09-05 18:49:1548.29556-117.4577222km/h29472m1.6m/s-46.8°C0%0hPa0V00:00:0000:00:0000:00:00
WB7NNF2026-09-05 18:48:5348.29534-117.45672272°26km/h29342m5.7m/s-47.0°C0%0hPa0V00:00:0000:00:0000:00:00
WB7NNF2026-09-05 18:48:3248.29488-117.45586259°46km/h29209m6.0m/s-47.3°C0%0hPa0V00:00:0000:00:0000:00:00
WB7NNF2026-09-05 18:48:1148.29442-117.45419352°27km/h29090m4.0m/s-47.4°C0%0hPa0V00:00:0000:00:0000:00:00
WB7NNF2026-09-05 18:47:5148.29443-117.45253253°40km/h28961m3.7m/s-47.6°C0%0hPa0V00:00:0000:00:0000:00:00
WB7NNF2026-09-05 18:47:3048.29437-117.45102218°4km/h28844m4.8m/s-48.3°C0%0hPa0V00:00:0000:00:0000:00:00
WB7NNF2026-09-05 18:47:1048.29451-117.44970341°26km/h28721m8.3m/s-48.4°C0%0hPa0V00:00:0000:00:0000:00:00
WB7NNF2026-09-05 18:46:4948.29452-117.44902218°24km/h28602m7.3m/s-48.6°C0%0hPa0V00:00:0000:00:0000:00:00
WB7NNF2026-09-05 18:46:2948.29532-117.44871185°24km/h28477m8.6m/s-48.9°C0%0hPa0V00:00:0000:00:0000:00:00
WB7NNF2026-09-05 18:46:0848.29663-117.44878215°18km/h28353m8.8m/s-48.9°C0%0hPa0V00:00:0000:00:0000:00:00
WB7NNF2026-09-05 18:45:4848.29704-117.44823163°26km/h28221m4.5m/s-49.2°C0%0hPa0V00:00:0000:00:0000:00:00
WB7NNF2026-09-05 18:45:2748.29730-117.44669237°16km/h28096m6.5m/s-49.4°C0%0hPa0V00:00:0000:00:0000:00:00
WB7NNF2026-09-05 18:45:0648.29785-117.44498179°27km/h27956m6.4m/s-49.0°C0%0hPa0V00:00:0000:00:0000:00:00
WB7NNF2026-09-05 18:44:4648.29861-117.44425254°42km/h27839m6.0m/s-49.1°C0%0hPa0V00:00:0000:00:0000:00:00
WB7NNF2026-09-05 18:44:2548.29921-117.44366221°26km/h27725m4.3m/s-49.1°C0%0hPa0V00:00:0000:00:0000:00:00
WB7NNF2026-09-05 18:44:0548.29967-117.44326108°38km/h27600m4.6m/s-49.2°C0%0hPa0V00:00:0000:00:0000:00:00
WB7NNF2026-09-05 18:43:4348.30026-117.44350120°47km/h27481m6.2m/s-49.5°C0%0hPa0V00:00:0000:00:0000:00:00
WB7NNF2026-09-05 18:43:2248.30065-117.44412146°7km/h27364m3.2m/s-49.2°C0%0hPa0V00:00:0000:00:0000:00:00
WB7NNF2026-09-05 18:43:0148.30051-117.4450821°22km/h27240m5.1m/s-49.4°C0%0hPa0V00:00:0000:00:0000:00:00
WB7NNF2026-09-05 18:42:4148.29996-117.44566355°20km/h27124m5.3m/s-49.8°C0%0hPa0V00:00:0000:00:0000:00:00
WB7NNF2026-09-05 18:42:2048.29932-117.44561309°46km/h27006m4.6m/s-49.8°C0%0hPa0V00:00:0000:00:0000:00:00
WB7NNF2026-09-05 18:42:0048.29885-117.44466336°9km/h26890m6.6m/s-49.9°C0%0hPa0V00:00:0000:00:0000:00:00
WB7NNF2026-09-05 18:41:3948.29861-117.44326269°20km/h26776m8.4m/s-50.5°C0%0hPa0V00:00:0000:00:0000:00:00
WB7NNF2026-09-05 18:41:1948.29852-117.44231248°16km/h26654m2.7m/s-50.1°C0%0hPa0V00:00:0000:00:0000:00:00
WB7NNF2026-09-05 18:40:5848.29886-117.44186130°16km/h26536m6.1m/s-49.3°C0%0hPa0V00:00:0000:00:0000:00:00
WB7NNF2026-09-05 18:40:3848.29907-117.44178172°40km/h26412m4.6m/s-48.7°C0%0hPa0V00:00:0000:00:0000:00:00
WB7NNF2026-09-05 18:40:1648.29952-117.44156274°20km/h26294m6.0m/s-48.3°C0%0hPa0V00:00:0000:00:0000:00:00
WB7NNF2026-09-05 18:39:5548.29985-117.44127102°5km/h26179m8.2m/s-48.5°C0%0hPa0V00:00:0000:00:0000:00:00
WB7NNF2026-09-05 18:39:3448.29984-117.4418432°31km/h26062m6.1m/s-49.3°C0%0hPa0V00:00:0000:00:0000:00:00
WB7NNF2026-09-05 18:39:1448.29884-117.4423812°38km/h25948m6.2m/s-50.3°C0%0hPa0V00:00:0000:00:0000:00:00
WB7NNF2026-09-05 18:38:5348.29793-117.4422444km/h25841m3.5m/s-50.7°C0%0hPa0V00:00:0000:00:0000:00:00
WB7NNF2026-09-05 18:38:3348.29732-117.44147328°22km/h25723m5.2m/s-51.4°C0%0hPa0V00:00:0000:00:0000:00:00
WB7NNF2026-09-05 18:38:1248.29637-117.44057343°26km/h25608m5.4m/s-52.0°C0%0hPa0V00:00:0000:00:0000:00:00
WB7NNF2026-09-05 18:37:5248.29604-117.43925260°16km/h25482m5.8m/s-52.2°C0%0hPa0V00:00:0000:00:0000:00:00
WB7NNF2026-09-05 18:37:3148.29584-117.43759250°33km/h25354m7.0m/s-53.1°C0%0hPa0V00:00:0000:00:0000:00:00
WB7NNF2026-09-05 18:37:1048.29583-117.43634239°27km/h25231m3.9m/s-53.2°C0%0hPa0V00:00:0000:00:0000:00:00
WB7NNF2026-09-05 18:36:5048.29534-117.43517267°35km/h25103m6.2m/s-53.2°C0%0hPa0V00:00:0000:00:0000:00:00
WB7NNF2026-09-05 18:36:2948.29505-117.43374247°40km/h24981m1.1m/s-53.1°C0%0hPa0V00:00:0000:00:0000:00:00
WB7NNF2026-09-05 18:36:0948.29497-117.43247274°20km/h24857m6.3m/s-52.6°C0%0hPa0V00:00:0000:00:0000:00:00
WB7NNF2026-09-05 18:35:4848.29505-117.43143277°26km/h24737m6.2m/s-52.5°C0%0hPa0V00:00:0000:00:0000:00:00
WB7NNF2026-09-05 18:35:2848.29519-117.43079250°13km/h24620m3.2m/s-52.6°C0%0hPa0V00:00:0000:00:0000:00:00
WB7NNF2026-09-05 18:35:0748.29556-117.43060266°9km/h24512m5.9m/s-52.5°C0%0hPa0V00:00:0000:00:0000:00:00
WB7NNF2026-09-05 18:34:4748.29557-117.42988291°35km/h24398m5.5m/s-52.4°C0%0hPa0V00:00:0000:00:0000:00:00
WB7NNF2026-09-05 18:34:2648.29555-117.42909271°27km/h24292m6.5m/s-52.0°C0%0hPa0V00:00:0000:00:0000:00:00
WB7NNF2026-09-05 18:34:0648.29577-117.42758228°22km/h24183m5.1m/s-51.8°C0%0hPa0V00:00:0000:00:0000:00:00
WB7NNF2026-09-05 18:33:4348.29590-117.42690353°18km/h24060m5.3m/s-51.9°C0%0hPa0V00:00:0000:00:0000:00:00
WB7NNF2026-09-05 18:33:2348.29544-117.42658223°11km/h23945m4.8m/s-52.4°C0%0hPa0V00:00:0000:00:0000:00:00
WB7NNF2026-09-05 18:33:0248.29508-117.42650275°31km/h23839m6.2m/s-53.6°C0%0hPa0V00:00:0000:00:0000:00:00
WB7NNF2026-09-05 18:32:4248.29456-117.42548302°26km/h23720m5.4m/s-53.8°C0%0hPa0V00:00:0000:00:0000:00:00
WB7NNF2026-09-05 18:32:2148.29425-117.42410250°31km/h23607m6.7m/s-54.1°C0%0hPa0V00:00:0000:00:0000:00:00
WB7NNF2026-09-05 18:32:0148.29429-117.42242283°15km/h23487m5.0m/s-53.7°C0%0hPa0V00:00:0000:00:0000:00:00
WB7NNF2026-09-05 18:31:4048.29437-117.42140297°33km/h23369m6.3m/s-53.4°C0%0hPa0V00:00:0000:00:0000:00:00
WB7NNF2026-09-05 18:31:2048.29422-117.42068309°24km/h23253m4.2m/s-53.1°C0%0hPa0V00:00:0000:00:0000:00:00
WB7NNF2026-09-05 18:30:5748.29378-117.4206199°26km/h23123m4.4m/s-53.8°C0%0hPa0V00:00:0000:00:0000:00:00
WB7NNF2026-09-05 18:30:3748.29296-117.4202713km/h23014m4.3m/s-53.7°C0%0hPa0V00:00:0000:00:0000:00:00
WB7NNF2026-09-05 18:30:1648.29261-117.41985280°9km/h22903m6.6m/s-53.7°C0%0hPa0V00:00:0000:00:0000:00:00
WB7NNF2026-09-05 18:29:5648.29288-117.4195766°5km/h22788m5.7m/s-54.2°C0%0hPa0V00:00:0000:00:0000:00:00
WB7NNF2026-09-05 18:29:3548.29282-117.4196550°18km/h22675m4.0m/s-54.6°C0%0hPa0V00:00:0000:00:0000:00:00
WB7NNF2026-09-05 18:29:1448.29235-117.4195835km/h22569m3.8m/s-54.5°C0%0hPa0V00:00:0000:00:0000:00:00
WB7NNF2026-09-05 18:28:5448.29116-117.4190422km/h22458m6.1m/s-54.3°C0%0hPa0V00:00:0000:00:0000:00:00
WB7NNF2026-09-05 18:28:3348.28967-117.41761317°37km/h22345m5.4m/s-54.3°C0%0hPa0V00:00:0000:00:0000:00:00
WB7NNF2026-09-05 18:28:1348.28828-117.41530317°35km/h22231m6.0m/s-54.1°C0%0hPa0V00:00:0000:00:0000:00:00
WB7NNF2026-09-05 18:27:5248.28763-117.41319263°29km/h22121m6.7m/s-53.9°C0%0hPa0V00:00:0000:00:0000:00:00
WB7NNF2026-09-05 18:27:3248.28748-117.41093297°27km/h22002m5.0m/s-53.8°C0%0hPa0V00:00:0000:00:0000:00:00
WB7NNF2026-09-05 18:27:1148.28771-117.40910245°27km/h21893m7.3m/s-53.9°C0%0hPa0V00:00:0000:00:0000:00:00
WB7NNF2026-09-05 18:26:5148.28839-117.40720190°26km/h21778m5.5m/s-54.4°C0%0hPa0V00:00:0000:00:0000:00:00
WB7NNF2026-09-05 18:26:3048.28930-117.40626213°26km/h21667m3.8m/s-54.5°C0%0hPa0V00:00:0000:00:0000:00:00
WB7NNF2026-09-05 18:26:1048.29053-117.40620142°37km/h21552m5.1m/s-54.2°C0%0hPa0V00:00:0000:00:0000:00:00
WB7NNF2026-09-05 18:25:4948.29158-117.40720139°24km/h21446m4.8m/s-54.1°C0%0hPa0V00:00:0000:00:0000:00:00
WB7NNF2026-09-05 18:25:2948.29196-117.4084942°11km/h21334m4.6m/s-53.5°C0%0hPa0V00:00:0000:00:0000:00:00
WB7NNF2026-09-05 18:25:0848.29175-117.40964309°15km/h21225m7.9m/s-53.3°C0%0hPa0V00:00:0000:00:0000:00:00
WB7NNF2026-09-05 18:24:4848.29090-117.41022327°24km/h21112m5.5m/s-53.9°C0%0hPa0V00:00:0000:00:0000:00:00
WB7NNF2026-09-05 18:24:0648.28805-117.40867321°46km/h20891m5.5m/s-55.7°C0%0hPa0V00:00:0000:00:0000:00:00
WB7NNF2026-09-05 18:23:4648.28686-117.40682328°31km/h20781m5.8m/s-55.3°C0%0hPa0V00:00:0000:00:0000:00:00
WB7NNF2026-09-05 18:23:2548.28591-117.40523316°29km/h20675m5.3m/s-54.6°C0%0hPa0V00:00:0000:00:0000:00:00
WB7NNF2026-09-05 18:23:0548.28482-117.40391342°38km/h20567m4.5m/s-53.9°C0%0hPa0V00:00:0000:00:0000:00:00
WB7NNF2026-09-05 18:22:4448.28393-117.40355337°15km/h20460m5.7m/s-54.7°C0%0hPa0V00:00:0000:00:0000:00:00
WB7NNF2026-09-05 18:22:2448.28333-117.40267311°24km/h20345m5.4m/s-54.6°C0%0hPa0V00:00:0000:00:0000:00:00
WB7NNF2026-09-05 18:22:0348.28297-117.40137269°18km/h20239m5.6m/s-54.1°C0%0hPa0V00:00:0000:00:0000:00:00
WB7NNF2026-09-05 18:21:4348.28263-117.40042341°13km/h20128m4.8m/s-54.2°C0%0hPa0V00:00:0000:00:0000:00:00
WB7NNF2026-09-05 18:21:2248.28239-117.39981339°4km/h20026m4.0m/s-54.0°C0%0hPa0V00:00:0000:00:0000:00:00
WB7NNF2026-09-05 18:20:4148.28101-117.39908337°15km/h19807m6.8m/s-53.4°C0%0hPa0V00:00:0000:00:0000:00:00
WB7NNF2026-09-05 18:20:2048.28032-117.3992339°22km/h19691m5.6m/s-53.1°C0%0hPa0V00:00:0000:00:0000:00:00
WB7NNF2026-09-05 18:19:5848.27954-117.39963341°13km/h19585m4.5m/s-52.9°C0%0hPa0V00:00:0000:00:0000:00:00
WB7NNF2026-09-05 18:19:3648.27873-117.40001359°18km/h19474m5.3m/s-53.1°C0%0hPa0V00:00:0000:00:0000:00:00
WB7NNF2026-09-05 18:19:1548.27781-117.4002518°22km/h19368m6.6m/s-52.9°C0%0hPa0V00:00:0000:00:0000:00:00
WB7NNF2026-09-05 18:18:5348.27668-117.4003112°22km/h19262m5.1m/s-52.9°C0%0hPa0V00:00:0000:00:0000:00:00
WB7NNF2026-09-05 18:18:3248.27535-117.39983346°35km/h19166m5.5m/s-53.1°C0%0hPa0V00:00:0000:00:0000:00:00
WB7NNF2026-09-05 18:18:1248.27392-117.39950332°29km/h19066m5.2m/s-53.3°C0%0hPa0V00:00:0000:00:0000:00:00
WB7NNF2026-09-05 18:17:5148.27256-117.39880351°29km/h18972m6.1m/s-53.2°C0%0hPa0V00:00:0000:00:0000:00:00
WB7NNF2026-09-05 18:17:3148.27130-117.39830341°15km/h18870m5.4m/s-52.4°C0%0hPa0V00:00:0000:00:0000:00:00
WB7NNF2026-09-05 18:17:1048.27025-117.39799336°20km/h18773m5.7m/s-52.3°C0%0hPa0V00:00:0000:00:0000:00:00
WB7NNF2026-09-05 18:16:5048.26894-117.39796360°35km/h18667m5.8m/s-54.6°C0%0hPa0V00:00:0000:00:0000:00:00
WB7NNF2026-09-05 18:16:2948.26690-117.39736334°44km/h18564m5.9m/s-54.9°C0%0hPa0V00:00:0000:00:0000:00:00
WB7NNF2026-09-05 18:16:0948.26486-117.39615340°51km/h18456m5.2m/s-54.6°C0%0hPa0V00:00:0000:00:0000:00:00
WB7NNF2026-09-05 18:15:4848.26329-117.39473321°24km/h18352m5.4m/s-53.9°C0%0hPa0V00:00:0000:00:0000:00:00
WB7NNF2026-09-05 18:15:2848.26199-117.39333322°26km/h18242m6.2m/s-53.1°C0%0hPa0V00:00:0000:00:0000:00:00
WB7NNF2026-09-05 18:15:0748.26094-117.39195317°38km/h18136m6.1m/s-52.7°C0%0hPa0V00:00:0000:00:0000:00:00
WB7NNF2026-09-05 18:14:4748.26008-117.38994286°35km/h18028m5.5m/s-52.2°C0%0hPa0V00:00:0000:00:0000:00:00
WB7NNF2026-09-05 18:14:2648.25954-117.38822310°24km/h17916m5.6m/s-51.6°C0%0hPa0V00:00:0000:00:0000:00:00
WB7NNF2026-09-05 18:14:0548.25898-117.38708338°29km/h17817m5.5m/s-51.2°C0%0hPa0V00:00:0000:00:0000:00:00
WB7NNF2026-09-05 18:13:4548.25821-117.3869351°11km/h17709m4.5m/s-50.5°C0%0hPa0V00:00:0000:00:0000:00:00
WB7NNF2026-09-05 18:13:2448.25728-117.3873514°26km/h17601m4.9m/s-50.5°C0%0hPa0V00:00:0000:00:0000:00:00
WB7NNF2026-09-05 18:13:0448.25571-117.3881842km/h17498m4.8m/s-51.0°C0%0hPa0V00:00:0000:00:0000:00:00
WB7NNF2026-09-05 18:12:4348.25395-117.3887321°31km/h17401m4.3m/s-50.6°C0%0hPa0V00:00:0000:00:0000:00:00
WB7NNF2026-09-05 18:12:2348.25240-117.3888933km/h17299m3.6m/s-50.1°C0%0hPa0V00:00:0000:00:0000:00:00
WB7NNF2026-09-05 18:12:0248.25092-117.3888211°33km/h17199m3.6m/s-50.4°C0%0hPa0V00:00:0000:00:0000:00:00
WB7NNF2026-09-05 18:11:4248.24904-117.38831332°33km/h17102m5.2m/s-51.6°C0%0hPa0V00:00:0000:00:0000:00:00
WB7NNF2026-09-05 18:11:2148.24784-117.38808357°16km/h17004m4.6m/s-51.6°C0%0hPa0V00:00:0000:00:0000:00:00
WB7NNF2026-09-05 18:11:0148.24682-117.3882951°18km/h16908m4.9m/s-51.7°C0%0hPa0V00:00:0000:00:0000:00:00
WB7NNF2026-09-05 18:10:4048.24570-117.3889431km/h16814m5.6m/s-51.8°C0%0hPa0V00:00:0000:00:0000:00:00
WB7NNF2026-09-05 18:10:2048.24390-117.3898820°37km/h16719m5.4m/s-51.5°C0%0hPa0V00:00:0000:00:0000:00:00
WB7NNF2026-09-05 18:09:5948.24175-117.3912020°47km/h16622m4.8m/s-51.0°C0%0hPa0V00:00:0000:00:0000:00:00
WB7NNF2026-09-05 18:09:3948.23902-117.3927032°57km/h16523m2.9m/s-51.2°C0%0hPa0V00:00:0000:00:0000:00:00
WB7NNF2026-09-05 18:09:1848.23600-117.3939355km/h16420m5.3m/s-51.2°C0%0hPa0V00:00:0000:00:0000:00:00
WB7NNF2026-09-05 18:08:5748.23333-117.3947921°57km/h16325m5.3m/s-51.7°C0%0hPa0V00:00:0000:00:0000:00:00
WB7NNF2026-09-05 18:08:3748.23074-117.3959818°57km/h16223m6.2m/s-51.2°C0%0hPa0V00:00:0000:00:0000:00:00
WB7NNF2026-09-05 18:08:1648.22843-117.3974737°55km/h16125m5.6m/s-51.4°C0%0hPa0V00:00:0000:00:0000:00:00
WB7NNF2026-09-05 18:07:5648.22578-117.3993820°51km/h16029m5.5m/s-51.6°C0%0hPa0V00:00:0000:00:0000:00:00
WB7NNF2026-09-05 18:07:3548.22282-117.4007924°57km/h15934m4.0m/s-51.7°C0%0hPa0V00:00:0000:00:0000:00:00
WB7NNF2026-09-05 18:07:1548.21981-117.4014611°57km/h15835m3.8m/s-52.1°C0%0hPa0V00:00:0000:00:0000:00:00
WB7NNF2026-09-05 18:06:5448.21706-117.4024819°64km/h15742m3.4m/s-52.6°C0%0hPa0V00:00:0000:00:0000:00:00
WB7NNF2026-09-05 18:06:3448.21396-117.4043426°75km/h15638m4.8m/s-52.2°C0%0hPa0V00:00:0000:00:0000:00:00
WB7NNF2026-09-05 18:06:1348.21040-117.4064213°69km/h15538m5.1m/s-51.9°C0%0hPa0V00:00:0000:00:0000:00:00
WB7NNF2026-09-05 18:05:5348.20595-117.4081116°95km/h15436m4.3m/s-51.9°C0%0hPa0V00:00:0000:00:0000:00:00
WB7NNF2026-09-05 18:05:3248.20155-117.4092016°88km/h15342m4.1m/s-51.3°C0%0hPa0V00:00:0000:00:0000:00:00
WB7NNF2026-09-05 18:05:1248.19716-117.4099782km/h15244m3.7m/s-51.0°C0%0hPa0V00:00:0000:00:0000:00:00
WB7NNF2026-09-05 18:04:5148.19318-117.4101591km/h15152m3.5m/s-51.3°C0%0hPa0V00:00:0000:00:0000:00:00
WB7NNF2026-09-05 18:04:3148.18884-117.40931347°86km/h15054m5.0m/s-50.9°C0%0hPa0V00:00:0000:00:0000:00:00
WB7NNF2026-09-05 18:04:1048.18459-117.40778345°86km/h14958m3.6m/s-50.4°C0%0hPa0V00:00:0000:00:0000:00:00
WB7NNF2026-09-05 18:03:4948.18090-117.40637348°78km/h14863m3.1m/s-49.9°C0%0hPa0V00:00:0000:00:0000:00:00
WB7NNF2026-09-05 18:03:2948.17743-117.40466345°69km/h14765m3.7m/s-50.0°C0%0hPa0V00:00:0000:00:0000:00:00
WB7NNF2026-09-05 18:03:0848.17462-117.40298336°62km/h14669m5.3m/s-49.4°C0%0hPa0V00:00:0000:00:0000:00:00
WB7NNF2026-09-05 18:02:4848.17193-117.40140344°60km/h14569m4.3m/s-49.1°C0%0hPa0V00:00:0000:00:0000:00:00
WB7NNF2026-09-05 18:02:2748.16964-117.40032331°42km/h14472m4.3m/s-48.5°C0%0hPa0V00:00:0000:00:0000:00:00
WB7NNF2026-09-05 18:02:0748.16763-117.39930344°47km/h14376m5.2m/s-48.0°C0%0hPa0V00:00:0000:00:0000:00:00
WB7NNF2026-09-05 18:01:4648.16606-117.3987610°20km/h14287m2.8m/s-47.9°C0%0hPa0V00:00:0000:00:0000:00:00
WB7NNF2026-09-05 18:01:2648.16420-117.3987613°44km/h14183m4.8m/s-47.8°C0%0hPa0V00:00:0000:00:0000:00:00
WB7NNF2026-09-05 18:01:0548.16224-117.39878358°40km/h14092m4.8m/s-47.9°C0%0hPa0V00:00:0000:00:0000:00:00
WB7NNF2026-09-05 18:00:4548.15982-117.3992313°51km/h13997m4.3m/s-48.0°C0%0hPa0V00:00:0000:00:0000:00:00
WB7NNF2026-09-05 18:00:2448.15729-117.4002129°58km/h13910m4.9m/s-47.7°C0%0hPa0V00:00:0000:00:0000:00:00
WB7NNF2026-09-05 18:00:0448.15437-117.4016919°58km/h13819m3.5m/s-48.2°C0%0hPa0V00:00:0000:00:0000:00:00
WB7NNF2026-09-05 17:59:4348.15131-117.4032560km/h13725m4.8m/s-47.5°C0%0hPa0V00:00:0000:00:0000:00:00
WB7NNF2026-09-05 17:59:2348.14763-117.4050420°75km/h13623m4.9m/s-46.9°C0%0hPa0V00:00:0000:00:0000:00:00
WB7NNF2026-09-05 17:59:0248.14373-117.4067519°80km/h13529m5.2m/s-46.6°C0%0hPa0V00:00:0000:00:0000:00:00
WB7NNF2026-09-05 17:58:4248.13906-117.4085514°86km/h13429m4.2m/s-46.9°C0%0hPa0V00:00:0000:00:0000:00:00
WB7NNF2026-09-05 17:58:2148.13432-117.4101415°77km/h13330m3.9m/s-46.7°C0%0hPa0V00:00:0000:00:0000:00:00
WB7NNF2026-09-05 17:58:0048.13003-117.4116513°89km/h13235m5.3m/s-46.1°C0%0hPa0V00:00:0000:00:0000:00:00
WB7NNF2026-09-05 17:57:4048.12592-117.4131214°71km/h13132m4.5m/s-46.0°C0%0hPa0V00:00:0000:00:0000:00:00
WB7NNF2026-09-05 17:57:1948.12214-117.4142878km/h13039m2.9m/s-45.7°C0%0hPa0V00:00:0000:00:0000:00:00
WB7NNF2026-09-05 17:56:5948.11856-117.4158520°66km/h12942m5.4m/s-45.0°C0%0hPa0V00:00:0000:00:0000:00:00
WB7NNF2026-09-05 17:56:3848.11519-117.4174015°80km/h12848m5.8m/s-44.5°C0%0hPa0V00:00:0000:00:0000:00:00
WB7NNF2026-09-05 17:56:1848.11131-117.4188012°75km/h12756m5.4m/s-44.4°C0%0hPa0V00:00:0000:00:0000:00:00
WB7NNF2026-09-05 17:55:5748.10777-117.4203418°77km/h12668m4.9m/s-44.4°C0%0hPa0V00:00:0000:00:0000:00:00
WB7NNF2026-09-05 17:55:3748.10395-117.4223118°75km/h12580m4.9m/s-44.3°C0%0hPa0V00:00:0000:00:0000:00:00
WB7NNF2026-09-05 17:55:1648.10053-117.4241224°68km/h12494m4.5m/s-43.9°C0%0hPa0V00:00:0000:00:0000:00:00
WB7NNF2026-09-05 17:54:5648.09717-117.4260325°73km/h12402m4.0m/s-43.5°C0%0hPa0V00:00:0000:00:0000:00:00
WB7NNF2026-09-05 17:54:3548.09390-117.4277320°62km/h12319m4.8m/s-43.0°C0%0hPa0V00:00:0000:00:0000:00:00
WB7NNF2026-09-05 17:54:1548.09048-117.4293013°66km/h12229m3.4m/s-43.9°C0%0hPa0V00:00:0000:00:0000:00:00
WB7NNF2026-09-05 17:53:5448.08700-117.4305418°73km/h12144m4.4m/s-43.6°C0%0hPa0V00:00:0000:00:0000:00:00
WB7NNF2026-09-05 17:53:3448.08337-117.4316010°73km/h12049m5.2m/s-43.7°C0%0hPa0V00:00:0000:00:0000:00:00
WB7NNF2026-09-05 17:53:1348.07968-117.4329514°82km/h11956m4.4m/s-43.3°C0%0hPa0V00:00:0000:00:0000:00:00
WB7NNF2026-09-05 17:52:5248.07590-117.4346413°84km/h11863m3.9m/s-42.9°C0%0hPa0V00:00:0000:00:0000:00:00
WB7NNF2026-09-05 17:52:3248.07177-117.4364219°75km/h11768m3.2m/s-42.9°C0%0hPa0V00:00:0000:00:0000:00:00
WB7NNF2026-09-05 17:52:1148.06761-117.4378619°78km/h11681m3.5m/s-43.1°C0%0hPa0V00:00:0000:00:0000:00:00
WB7NNF2026-09-05 17:51:5148.06341-117.4395478km/h11587m4.1m/s-42.5°C0%0hPa0V00:00:0000:00:0000:00:00
WB7NNF2026-09-05 17:51:3048.05967-117.4407313°80km/h11498m3.8m/s-41.9°C0%0hPa0V00:00:0000:00:0000:00:00
WB7NNF2026-09-05 17:51:1048.05597-117.4424824°73km/h11403m3.7m/s-42.6°C0%0hPa0V00:00:0000:00:0000:00:00
WB7NNF2026-09-05 17:50:4948.05262-117.4446322°73km/h11314m3.7m/s-42.1°C0%0hPa0V00:00:0000:00:0000:00:00
WB7NNF2026-09-05 17:50:2948.04885-117.4471823°86km/h11228m3.7m/s-41.9°C0%0hPa0V00:00:0000:00:0000:00:00
WB7NNF2026-09-05 17:50:0748.04471-117.4499729°89km/h11144m4.6m/s-41.6°C0%0hPa0V00:00:0000:00:0000:00:00
WB7NNF2026-09-05 17:49:4648.04022-117.4533032°97km/h11058m4.9m/s-41.7°C0%0hPa0V00:00:0000:00:0000:00:00
WB7NNF2026-09-05 17:49:2648.03571-117.4572734°110km/h10972m5.1m/s-41.5°C0%0hPa0V00:00:0000:00:0000:00:00
WB7NNF2026-09-05 17:49:0548.03018-117.4618632°113km/h10887m3.4m/s-41.5°C0%0hPa0V00:00:0000:00:0000:00:00
WB7NNF2026-09-05 17:48:4548.02464-117.4654624°122km/h10807m3.2m/s-42.5°C0%0hPa0V00:00:0000:00:0000:00:00
WB7NNF2026-09-05 17:48:2448.01873-117.4684317°117km/h10720m3.3m/s-42.2°C0%0hPa0V00:00:0000:00:0000:00:00
WB7NNF2026-09-05 17:48:0348.01349-117.4705115°108km/h10636m3.4m/s-42.3°C0%0hPa0V00:00:0000:00:0000:00:00
WB7NNF2026-09-05 17:47:4348.00792-117.4721413°100km/h10553m3.4m/s-43.1°C0%0hPa0V00:00:0000:00:0000:00:00
WB7NNF2026-09-05 17:47:2248.00285-117.4740017°102km/h10474m4.2m/s-42.6°C0%0hPa0V00:00:0000:00:0000:00:00
WB7NNF2026-09-05 17:46:4147.99265-117.4797124°110km/h10297m5.4m/s-42.7°C0%0hPa0V00:00:0000:00:0000:00:00
WB7NNF2026-09-05 17:46:2047.98733-117.4827420°115km/h10207m4.8m/s-42.5°C0%0hPa0V00:00:0000:00:0000:00:00
WB7NNF2026-09-05 17:46:0047.98124-117.4861625°135km/h10124m3.6m/s-43.6°C0%0hPa0V00:00:0000:00:0000:00:00
WB7NNF2026-09-05 17:45:1947.96853-117.4917212°126km/h9959m4.8m/s-44.6°C0%0hPa0V00:00:0000:00:0000:00:00
WB7NNF2026-09-05 17:44:5847.96254-117.4935715°115km/h9878m4.8m/s-44.6°C0%0hPa0V00:00:0000:00:0000:00:00
WB7NNF2026-09-05 17:44:3847.95664-117.4957220°102km/h9793m4.0m/s-44.4°C0%0hPa0V00:00:0000:00:0000:00:00
WB7NNF2026-09-05 17:44:1747.95114-117.4982024°120km/h9708m4.5m/s-44.4°C0%0hPa0V00:00:0000:00:0000:00:00
WB7NNF2026-09-05 17:43:5747.94536-117.5015419°122km/h9620m4.8m/s-44.5°C0%0hPa0V00:00:0000:00:0000:00:00
WB7NNF2026-09-05 17:43:3647.93937-117.5053325°126km/h9525m5.9m/s-44.4°C0%0hPa0V00:00:0000:00:0000:00:00
WB7NNF2026-09-05 17:43:1447.93296-117.5095726°131km/h9441m3.1m/s-44.1°C0%0hPa0V00:00:0000:00:0000:00:00
WB7NNF2026-09-05 17:42:5347.92663-117.5139524°131km/h9359m3.3m/s-44.0°C0%0hPa0V00:00:0000:00:0000:00:00
WB7NNF2026-09-05 17:42:3347.92023-117.5185831°141km/h9274m3.9m/s-43.7°C0%0hPa0V00:00:0000:00:0000:00:00
WB7NNF2026-09-05 17:42:1247.91419-117.5233036°131km/h9181m6.4m/s-43.1°C0%0hPa0V00:00:0000:00:0000:00:00
WB7NNF2026-09-05 17:41:4847.90600-117.5297327°153km/h9060m4.4m/s-42.7°C0%0hPa0V00:00:0000:00:0000:00:00
WB7NNF2026-09-05 17:41:2747.89882-117.5348628°161km/h8982m3.7m/s-42.4°C0%0hPa0V00:00:0000:00:0000:00:00
WB7NNF2026-09-05 17:41:0747.89132-117.5402426°155km/h8901m5.6m/s-42.3°C0%0hPa0V00:00:0000:00:0000:00:00
WB7NNF2026-09-05 17:40:4647.88427-117.5447826°151km/h8822m4.9m/s-41.7°C0%0hPa0V00:00:0000:00:0000:00:00
WB7NNF2026-09-05 17:40:2647.87703-117.5492922°144km/h8738m4.7m/s-41.2°C0%0hPa0V00:00:0000:00:0000:00:00
WB7NNF2026-09-05 17:40:0547.87037-117.5529717°133km/h8654m4.5m/s-42.1°C0%0hPa0V00:00:0000:00:0000:00:00
WB7NNF2026-09-05 17:39:4547.86362-117.5565020°148km/h8567m3.3m/s-42.0°C0%0hPa0V00:00:0000:00:0000:00:00
WB7NNF2026-09-05 17:39:2447.85732-117.5602621°130km/h8478m2.9m/s-41.6°C0%0hPa0V00:00:0000:00:0000:00:00
WB7NNF2026-09-05 17:39:0447.85099-117.5638121°135km/h8390m3.1m/s-40.9°C0%0hPa0V00:00:0000:00:0000:00:00
WB7NNF2026-09-05 17:38:4347.84493-117.5671019°126km/h8303m4.4m/s-40.1°C0%0hPa0V00:00:0000:00:0000:00:00
WB7NNF2026-09-05 17:38:1947.83752-117.5712325°120km/h8189m6.6m/s-39.1°C0%0hPa0V00:00:0000:00:0000:00:00
WB7NNF2026-09-05 17:37:5847.83149-117.5742119°113km/h8093m4.1m/s-38.3°C0%0hPa0V00:00:0000:00:0000:00:00
WB7NNF2026-09-05 17:37:3847.82530-117.5771821°119km/h8003m3.6m/s-37.5°C0%0hPa0V00:00:0000:00:0000:00:00
WB7NNF2026-09-05 17:37:1647.81922-117.5802621°113km/h7915m4.8m/s-36.8°C0%0hPa0V00:00:0000:00:0000:00:00
WB7NNF2026-09-05 17:36:5547.81314-117.5833415°106km/h7832m5.2m/s-36.2°C0%0hPa0V00:00:0000:00:0000:00:00
WB7NNF2026-09-05 17:36:3447.80770-117.5864220°126km/h7719m5.1m/s-35.3°C0%0hPa0V00:00:0000:00:0000:00:00
WB7NNF2026-09-05 17:36:1447.80211-117.5892918°97km/h7611m5.2m/s-34.5°C0%0hPa0V00:00:0000:00:0000:00:00
WB7NNF2026-09-05 17:35:5347.79727-117.5915017°104km/h7534m3.9m/s-34.0°C0%0hPa0V00:00:0000:00:0000:00:00
WB7NNF2026-09-05 17:35:1247.78706-117.5957317°102km/h7369m4.4m/s-32.7°C0%0hPa0V00:00:0000:00:0000:00:00
WB7NNF2026-09-05 17:34:5247.78198-117.5979516°99km/h7288m4.6m/s-32.1°C0%0hPa0V00:00:0000:00:0000:00:00
WB7NNF2026-09-05 17:34:2647.77530-117.6007015°97km/h7174m4.2m/s-31.2°C0%0hPa0V00:00:0000:00:0000:00:00
WB7NNF2026-09-05 17:34:0547.77082-117.6024116°91km/h7096m3.7m/s-30.6°C0%0hPa0V00:00:0000:00:0000:00:00
WB7NNF2026-09-05 17:33:4447.76621-117.6041911°91km/h7014m3.3m/s-30.0°C0%0hPa0V00:00:0000:00:0000:00:00
WB7NNF2026-09-05 17:33:2447.76154-117.6062512°106km/h6921m5.1m/s-29.3°C0%0hPa0V00:00:0000:00:0000:00:00
WB7NNF2026-09-05 17:32:4747.75389-117.6097812°97km/h6720m6.6m/s-28.1°C0%0hPa0V00:00:0000:00:0000:00:00
WB7NNF2026-09-05 17:32:2647.74989-117.6115929°88km/h6601m7.4m/s-27.1°C0%0hPa0V00:00:0000:00:0000:00:00
WB7NNF2026-09-05 17:32:0447.74622-117.6138423°71km/h6483m3.7m/s-26.4°C0%0hPa0V00:00:0000:00:0000:00:00
WB7NNF2026-09-05 17:31:4347.74279-117.6158624°62km/h6401m3.3m/s-25.7°C0%0hPa0V00:00:0000:00:0000:00:00
WB7NNF2026-09-05 17:31:2147.73951-117.6180623°64km/h6320m4.4m/s-25.1°C0%0hPa0V00:00:0000:00:0000:00:00
WB7NNF2026-09-05 17:31:0147.73626-117.6202621°80km/h6238m3.9m/s-24.7°C0%0hPa0V00:00:0000:00:0000:00:00
WB7NNF2026-09-05 17:30:3847.73286-117.6225520°64km/h6103m6.7m/s-24.5°C0%0hPa0V00:00:0000:00:0000:00:00
WB7NNF2026-09-05 17:29:5547.72800-117.6249639°38km/h5868m3.6m/s-22.9°C0%0hPa0V00:00:0000:00:0000:00:00
WB7NNF2026-09-05 17:29:2547.72516-117.6262324°55km/h5713m5.6m/s-21.6°C0%0hPa0V00:00:0000:00:0000:00:00


GPX KML Map

© wettersonde.net (DO2JMG) - 2026  -  -